Latest Weather Observations for Christmas Island

IDW60801

Issued at 10:03 am WST Tuesday 24 October 2017 (issued every 30 minutes, with the page automatically refreshed every 10 minutes)

About weather observations | Map of weather stations | Latest weather observations for WA | Other Formats
Station Details ID: 200790 Name: CHRISTMAS ISLAND AERO Lat: -10.45 Lon: 105.69 Height: 261.0 m
Data from the previous 72 hours. | See also: Recent months at Christmas Island
Date/Time
WST
Temp
°C
App
Temp
°C
Dew
Point
°C
Rel
Hum
%
Delta-T
°C
Wind Press
QNH
hPa
Press
MSL
hPa
Rain since
9am
mm
Dir  Spd
km/h
Gust
km/h
Spd
kts
Gust
kts
24/10:00am 25.3 26.8 21.2 78 2.7 SSE 15 24 8 13 1017.7 1016.2 0.0
24/09:30am 24.5 26.0 21.2 82 2.2 SSE 15 24 8 13 1017.7 - 0.0
24/09:05am 24.3 26.1 21.1 82 2.1 SSE 13 19 7 10 1017.5 - 0.0
24/09:00am 24.4 26.1 20.9 81 2.3 SSE 13 20 7 11 1017.4 - 0.0
24/08:38am 23.6 25.7 20.9 85 1.8 SSE 11 19 6 10 1017.4 - 0.0
24/08:30am 23.9 25.6 20.9 83 2.0 SSE 13 20 7 11 1017.3 - 0.0
24/08:00am 23.1 25.0 21.3 90 1.2 SSE 13 20 7 11 1017.1 - 0.0
24/07:30am 23.2 25.9 21.4 90 1.2 SSE 9 15 5 8 1016.9 - 0.0
24/07:00am 22.8 26.1 21.4 92 0.9 SSE 6 11 3 6 1016.7 1015.2 0.0
24/06:42am 22.7 25.8 21.5 93 0.8 S 7 13 4 7 1016.6 - 0.0
24/06:30am 22.6 25.9 21.5 93 0.7 S 6 15 3 8 1016.5 - 0.0
24/06:00am 22.6 25.7 21.5 93 0.7 S 7 11 4 6 1016.2 - 0.0
24/05:42am 22.8 25.5 21.4 92 0.9 SSE 9 17 5 9 1016.2 - 0.0
24/05:30am 22.7 25.2 21.0 90 1.1 SE 9 15 5 8 1016.1 - 0.0
24/05:13am 22.7 25.1 20.9 89 1.2 SE 9 13 5 7 1015.9 - 0.0
24/05:02am 22.6 24.9 20.6 88 1.3 SSE 9 17 5 9 1015.7 - 0.0
24/05:00am 22.5 24.8 20.7 89 1.2 SSE 9 17 5 9 1015.7 - 0.0
24/04:30am 22.6 25.0 20.9 90 1.1 SE 9 17 5 9 1015.7 - 0.0
24/04:00am 22.7 25.1 20.9 89 1.2 SSE 9 17 5 9 1015.6 1014.1 0.0
24/03:30am 22.9 25.0 20.9 88 1.3 SE 11 22 6 12 1015.3 - 0.0
24/03:00am 22.9 24.2 20.8 88 1.4 SSE 15 22 8 12 1015.2 - 0.0
24/02:41am 22.8 24.4 20.8 88 1.3 SSE 13 22 7 12 1015.3 - 0.0
24/02:32am 22.8 24.4 20.8 88 1.3 SSE 13 22 7 12 1015.3 - 0.0
24/02:30am 22.8 24.0 20.7 88 1.4 SE 15 24 8 13 1015.3 - 0.0
24/02:00am 23.0 24.7 20.9 88 1.4 SSE 13 24 7 13 1015.7 - 0.0
24/01:59am 23.0 24.7 20.9 88 1.4 SSE 13 22 7 12 1015.7 - 0.0
24/01:56am 23.0 24.6 20.7 87 1.5 SSE 13 22 7 12 1015.7 - 0.0
24/01:30am 23.0 24.6 20.7 87 1.5 SSE 13 22 7 12 1015.8 - 0.0
24/01:00am 23.0 23.8 20.7 87 1.5 SSE 17 26 9 14 1016.2 1014.6 0.0
24/12:30am 23.0 24.7 21.0 88 1.3 SSE 13 20 7 11 1016.5 - 0.0
24/12:00am 23.2 24.9 20.9 87 1.5 SSE 13 24 7 13 1016.9 - 0.0
 
Date/Time
WST
Temp
°C
App
Temp
°C
Dew
Point
°C
Rel
Hum
%
Delta-T
°C
Wind Press
QNH
hPa
Press
MSL
hPa
Rain since
9am
mm
Dir  Spd
km/h
Gust
km/h
Spd
kts
Gust
kts
23/11:30pm 23.2 24.9 20.9 87 1.5 SSE 13 22 7 12 1016.8 - 0.0
23/11:00pm 23.2 24.8 20.8 86 1.6 SSE 13 24 7 13 1016.7 - 0.0
23/10:30pm 23.2 24.9 20.9 87 1.5 SSE 13 20 7 11 1016.6 - 0.0
23/10:25pm 23.2 25.2 20.8 86 1.6 SSE 11 20 6 11 1016.6 - 0.0
23/10:03pm 23.2 24.8 20.8 86 1.6 SSE 13 24 7 13 1016.5 - 0.0
23/10:00pm 23.2 24.7 20.6 85 1.7 SSE 13 22 7 12 1016.5 1015.0 0.0
23/09:50pm 23.3 25.0 20.9 86 1.6 SSE 13 20 7 11 1016.4 - 0.0
23/09:49pm 23.3 25.0 20.9 86 1.6 SSE 13 20 7 11 1016.4 - 0.0
23/09:30pm 23.3 24.9 20.7 85 1.7 SSE 13 26 7 14 1016.3 - 0.0
23/09:00pm 23.2 24.8 20.8 86 1.6 SSE 13 22 7 12 1016.1 - 0.0
23/08:30pm 23.3 25.4 20.9 86 1.6 S 11 19 6 10 1015.9 - 0.0
23/08:01pm 23.3 25.0 20.9 86 1.6 SSE 13 20 7 11 - - 0.0
23/08:00pm 23.3 25.0 20.9 86 1.6 SSE 13 20 7 11 1015.5 - 0.0
23/07:30pm 23.3 25.4 20.9 86 1.6 SSE 11 22 6 12 1015.1 - 0.0
23/07:00pm 23.5 25.1 20.8 85 1.8 SSE 13 22 7 12 1014.9 1013.4 0.0
23/06:30pm 23.9 25.9 20.7 82 2.1 SSE 11 22 6 12 1014.4 - 0.0
23/06:24pm 24.0 26.0 20.7 82 2.2 SSE 11 20 6 11 1014.4 - 0.0
23/06:00pm 24.4 25.5 20.4 78 2.6 SSE 15 24 8 13 1014.2 - 0.0
23/05:43pm 24.4 25.8 20.4 78 2.6 SSE 13 22 7 12 1014.1 - 0.0
23/05:30pm 24.9 26.1 20.7 77 2.8 S 15 24 8 13 1014.1 - 0.0
23/05:00pm 24.7 26.0 20.9 79 2.5 SSE 15 24 8 13 1014.0 - 0.0
23/04:30pm 25.4 26.7 20.9 76 3.0 SSE 15 26 8 14 1014.1 - 0.0
23/04:03pm 25.1 26.0 20.9 77 2.8 SSE 17 26 9 14 1014.3 - 0.0
23/04:00pm 24.8 25.6 20.7 78 2.7 SSE 17 26 9 14 1014.3 1012.8 0.0
23/03:30pm 25.6 26.1 20.8 75 3.2 SSE 19 28 10 15 1014.2 - 0.0
23/03:00pm 25.9 27.0 21.3 76 3.1 S 17 32 9 17 1014.3 - 0.0
23/02:49pm 26.0 26.6 21.0 74 3.3 S 19 30 10 16 1014.4 - 0.0
23/02:30pm 26.2 27.6 21.1 73 3.4 S 15 30 8 16 1014.4 - 0.0
23/02:00pm 25.6 26.7 21.3 77 2.9 SSE 17 28 9 15 1015.1 - 0.0
23/01:57pm 25.5 26.9 21.1 76 2.9 SSE 15 24 8 13 1015.1 - 0.0
23/01:30pm 26.2 26.7 20.8 72 3.6 S 19 32 10 17 1015.3 - 0.0
23/01:00pm 26.2 27.2 21.1 73 3.4 SSE 17 28 9 15 1015.6 1014.1 0.0
23/12:56pm 26.0 27.0 21.0 74 3.3 SSE 17 28 9 15 1015.7 - 0.0
23/12:30pm 26.0 26.8 20.7 72 3.5 SSE 17 30 9 16 1015.9 - 0.0
23/12:00pm 25.4 26.6 21.5 79 2.6 SSE 17 30 9 16 1016.1 - 0.0
23/11:30am 25.5 27.5 21.6 79 2.6 S 13 24 7 13 1016.3 - 0.0
23/11:00am 25.5 26.8 21.6 79 2.6 SSE 17 26 9 14 1016.4 - 0.0
23/10:49am 25.4 26.7 21.7 80 2.5 SSE 17 24 9 13 1016.4 - 0.0
23/10:30am 25.4 27.7 22.0 81 2.3 SSE 13 20 7 11 1016.4 - 0.0
23/10:04am 25.0 26.3 21.6 81 2.3 SSE 17 26 9 14 1016.3 - 0.0
23/10:00am 24.9 26.0 21.3 80 2.4 SSE 17 26 9 14 1016.3 1014.8 0.0
23/09:30am 24.1 26.2 21.7 86 1.6 SSE 13 20 7 11 1016.4 - 0.0
23/09:00am 23.2 23.9 21.2 88 1.3 SE 19 28 10 15 1016.3 - 0.0
23/08:54am 23.6 24.5 20.9 85 1.8 SE 17 26 9 14 1016.2 - 0.0
23/08:30am 23.2 24.8 20.8 86 1.6 SSE 13 22 7 12 1015.8 - 0.0
23/08:00am 23.1 25.0 20.5 85 1.7 SSE 11 17 6 9 1015.6 - 0.0
23/07:30am 22.8 24.3 20.5 87 1.5 SE 13 22 7 12 1015.3 - 0.0
23/07:00am 22.5 24.3 20.4 88 1.4 SE 11 19 6 10 1015.1 1013.6 0.0
23/06:47am 22.5 24.3 20.4 88 1.4 SE 11 19 6 10 1015.2 - 0.0
23/06:44am 22.5 24.2 20.2 87 1.5 SE 11 19 6 10 1015.1 - 0.0
23/06:30am 22.6 23.9 20.1 86 1.6 SE 13 20 7 11 1014.9 - 0.0
23/06:20am 22.5 23.4 20.0 86 1.6 SE 15 20 8 11 1014.7 - 0.0
23/06:00am 22.4 23.2 19.9 86 1.6 SE 15 24 8 13 1014.3 - 0.0
23/05:30am 22.5 23.5 20.2 87 1.5 SE 15 24 8 13 1014.3 - 0.0
23/05:00am 22.5 23.5 20.2 87 1.5 SE 15 22 8 12 1014.1 - 0.0
23/04:33am 22.6 22.6 19.7 84 1.9 SE 19 24 10 13 1013.7 - 0.0
23/04:30am 22.6 23.0 19.8 84 1.8 SE 17 26 9 14 1013.7 - 0.0
23/04:12am 22.9 23.2 20.3 85 1.7 SE 19 26 10 14 1013.7 - 0.0
23/04:00am 22.8 23.4 20.2 85 1.7 SE 17 26 9 14 1013.7 1012.2 0.0
23/03:30am 22.8 23.2 19.9 84 1.9 SE 17 28 9 15 1013.9 - 0.0
23/03:00am 22.7 23.2 20.1 85 1.7 SE 17 24 9 13 1014.0 - 0.0
23/02:48am 22.7 22.9 20.2 86 1.6 SE 19 32 10 17 1014.1 - 0.0
23/02:30am 23.0 22.6 20.1 84 1.9 SE 22 35 12 19 1014.1 - 0.0
23/02:00am 23.1 23.2 20.3 84 1.8 SE 20 28 11 15 1014.5 - 0.0
23/01:30am 23.0 23.8 20.6 86 1.6 SE 17 26 9 14 1014.7 - 0.0
23/01:00am 22.9 22.9 20.1 84 1.8 SE 20 32 11 17 1014.7 1013.2 0.0
23/12:30am 23.1 23.3 20.5 85 1.7 SE 20 32 11 17 1015.1 - 0.0
23/12:00am 23.2 23.4 20.5 85 1.8 SE 20 32 11 17 1015.5 - 0.0
 
Date/Time
WST
Temp
°C
App
Temp
°C
Dew
Point
°C
Rel
Hum
%
Delta-T
°C
Wind Press
QNH
hPa
Press
MSL
hPa
Rain since
9am
mm
Dir  Spd
km/h
Gust
km/h
Spd
kts
Gust
kts
22/11:30pm 23.2 24.1 20.8 86 1.6 SE 17 26 9 14 1015.6 - 0.0
22/11:00pm 23.2 23.6 20.6 85 1.7 SE 19 28 10 15 1015.6 - 0.0
22/10:30pm 23.2 23.6 20.6 85 1.7 SE 19 30 10 16 1015.5 - 0.0
22/10:00pm 23.4 24.8 21.0 86 1.6 SE 15 24 8 13 1015.3 1013.8 0.0
22/09:30pm 23.3 24.1 20.6 85 1.8 SSE 17 28 9 15 1015.2 - 0.0
22/09:00pm 23.2 24.4 20.6 85 1.7 SSE 15 24 8 13 1015.0 - 0.0
22/08:30pm 23.3 24.5 20.7 85 1.7 SE 15 28 8 15 1015.0 - 0.0
22/08:14pm 23.3 24.9 20.7 85 1.7 SSE 13 26 7 14 1014.9 - 0.0
22/08:09pm 23.3 24.5 20.6 85 1.8 SSE 15 26 8 14 1014.9 - 0.0
22/08:00pm 23.3 24.5 20.6 85 1.8 SSE 15 28 8 15 1014.8 - 0.0
22/07:30pm 23.2 24.3 20.5 85 1.8 SE 15 24 8 13 1014.3 - 0.0
22/07:00pm 23.5 24.4 20.8 85 1.8 SSE 17 28 9 15 1014.1 1012.6 0.0
22/06:30pm 23.7 24.5 20.7 83 2.0 SSE 17 32 9 17 1014.0 - 0.0
22/06:00pm 23.8 25.1 20.8 83 2.0 SSE 15 24 8 13 1013.6 - 0.0
22/05:30pm 24.5 25.9 21.0 81 2.3 SSE 15 26 8 14 1013.3 - 0.0
22/05:00pm 24.8 26.4 20.7 78 2.7 SSE 13 22 7 12 1013.3 - 0.0
22/04:30pm 24.3 26.0 21.0 82 2.2 SSE 13 24 7 13 1013.8 - 0.0
22/04:00pm 24.5 25.9 21.0 81 2.3 S 15 24 8 13 1014.0 1012.5 0.0
22/03:30pm 24.8 26.5 21.0 79 2.5 SSE 13 22 7 12 1014.2 - 0.0
22/03:24pm 24.7 26.3 20.8 79 2.6 SSE 13 22 7 12 1014.3 - 0.0
22/03:21pm 24.6 26.2 20.8 79 2.5 SSE 13 22 7 12 1014.2 - 0.0
22/03:00pm 25.1 26.5 21.0 78 2.7 S 15 26 8 14 1014.3 - 0.0
22/02:30pm 25.9 27.6 20.9 74 3.3 SSE 13 22 7 12 1014.6 - 0.0
22/02:08pm 25.6 27.4 21.1 76 3.0 S 13 24 7 13 1015.0 - 0.0
22/02:00pm 25.4 27.0 20.7 75 3.1 SSE 13 24 7 13 1015.0 - 0.0
22/01:30pm 25.6 25.9 20.4 73 3.4 SSE 19 26 10 14 1015.6 - 0.0
22/01:00pm 26.2 27.4 20.6 71 3.7 SSE 15 28 8 15 1015.9 1014.4 0.0
22/12:30pm 25.0 25.6 20.3 75 3.1 SSE 17 28 9 15 1016.4 - 0.0
22/12:00pm 25.8 26.9 20.5 72 3.5 SSE 15 24 8 13 1016.7 - 0.0
22/11:30am 25.4 26.4 21.0 76 2.9 SSE 17 26 9 14 1017.0 - 0.0
22/11:07am 25.0 26.7 20.9 78 2.7 SSE 13 20 7 11 1017.2 - 0.0
22/11:00am 25.1 26.8 21.0 78 2.7 SSE 13 22 7 12 1017.4 - 0.0
22/10:57am 25.4 26.8 21.0 76 2.9 SE 15 22 8 12 1017.4 - 0.0
22/10:55am 25.1 26.9 21.2 79 2.6 SSE 13 22 7 12 1017.4 - 0.0
22/10:30am 24.8 25.6 20.7 78 2.7 SE 17 24 9 13 1017.5 - 0.0
22/10:02am 24.8 25.9 21.3 81 2.3 SE 17 24 9 13 1017.5 - 0.0
22/10:00am 24.8 26.3 21.2 80 2.4 SE 15 24 8 13 1017.4 1015.9 0.0
22/09:42am 24.4 25.7 20.8 80 2.4 SSE 15 20 8 11 1017.4 - 0.0
22/09:30am 24.6 26.6 20.7 79 2.6 SSE 11 20 6 11 1017.4 - 0.0
22/09:00am 24.1 25.8 20.9 82 2.1 SSE 13 20 7 11 1017.1 - 0.0
22/08:30am 24.2 25.6 21.0 82 2.1 SSE 15 24 8 13 1016.8 - 0.0
22/08:00am 23.6 25.7 20.9 85 1.8 SSE 11 19 6 10 1016.7 - 0.0
22/07:34am 23.6 25.9 21.3 87 1.5 SSE 11 17 6 9 1016.4 - 0.0
22/07:30am 23.4 25.5 21.0 86 1.6 SSE 11 17 6 9 1016.4 - 0.0
22/07:18am 23.0 25.5 21.0 88 1.3 SSE 9 15 5 8 1016.3 - 0.0
22/07:00am 22.8 25.3 21.1 90 1.1 SSE 9 15 5 8 1016.1 1014.5 0.0
22/06:30am 22.8 24.2 21.1 90 1.1 SE 15 22 8 12 1015.7 - 0.0
22/06:00am 22.7 24.1 21.0 90 1.1 SE 15 20 8 11 1015.6 - 0.0
22/05:30am 22.8 25.1 21.3 91 1.0 SE 11 17 6 9 1015.6 - 0.0
22/05:15am 22.9 24.7 21.2 90 1.1 ESE 13 19 7 10 1015.4 - 0.0
22/05:00am 22.9 24.6 20.9 88 1.3 SE 13 20 7 11 1015.4 - 0.0
22/04:44am 23.0 23.9 20.9 88 1.4 ESE 17 24 9 13 1015.1 - 0.0
22/04:30am 22.9 23.8 20.8 88 1.4 ESE 17 24 9 13 1015.0 - 0.0
22/04:00am 22.9 23.8 20.9 88 1.3 ESE 17 26 9 14 1015.0 1013.5 0.0
22/03:30am 22.9 23.3 20.9 88 1.3 SE 20 28 11 15 1015.1 - 0.0
22/03:00am 22.8 23.4 21.0 89 1.2 SE 19 26 10 14 1015.2 - 0.0
22/02:30am 22.8 23.3 20.8 88 1.3 SE 19 28 10 15 1015.2 - 0.0
22/02:19am 22.9 23.6 21.2 90 1.1 SE 19 28 10 15 1015.3 - 0.0
22/02:00am 22.9 23.0 21.1 89 1.2 SE 22 35 12 19 1015.3 - 0.0
22/01:44am 22.8 22.7 20.8 88 1.3 SE 22 33 12 18 1015.4 - 0.0
22/01:30am 23.0 22.5 20.7 87 1.5 SE 24 35 13 19 1015.5 - 0.0
22/01:00am 23.0 23.1 21.2 89 1.2 SE 22 35 12 19 1015.5 1014.0 0.0
22/12:30am 23.1 23.9 21.3 90 1.2 SE 19 28 10 15 1015.9 - 0.0
22/12:00am 23.1 23.2 21.1 88 1.3 SE 22 35 12 19 1016.1 - 0.0
 
Date/Time
WST
Temp
°C
App
Temp
°C
Dew
Point
°C
Rel
Hum
%
Delta-T
°C
Wind Press
QNH
hPa
Press
MSL
hPa
Rain since
9am
mm
Dir  Spd
km/h
Gust
km/h
Spd
kts
Gust
kts
21/11:30pm 23.4 23.7 21.6 90 1.2 SE 22 32 12 17 1016.3 - 0.0
21/11:00pm 23.2 23.7 21.1 88 1.4 SE 20 33 11 18 1016.5 - 0.0
21/10:30pm 23.2 23.7 21.2 88 1.3 SE 20 28 11 15 1016.4 - 0.0
21/10:00pm 23.2 23.6 20.9 87 1.5 SE 20 30 11 16 1016.4 1014.9 0.0
21/09:30pm 23.4 23.8 21.0 86 1.6 SE 20 32 11 17 1016.2 - 0.0
21/09:00pm 23.4 24.0 21.4 88 1.3 SE 20 32 11 17 1015.8 - 0.0
21/08:30pm 23.4 24.2 21.3 88 1.4 SE 19 32 10 17 1015.6 - 0.0
21/08:00pm 23.3 23.3 21.0 87 1.5 SE 22 33 12 18 1015.4 - 0.0
21/07:30pm 23.5 24.1 21.4 88 1.4 SE 20 33 11 18 1015.0 - 0.0
21/07:00pm 23.5 25.1 21.5 88 1.3 SSE 15 30 8 16 1014.6 1013.1 0.0
21/06:30pm 23.7 25.7 21.6 88 1.4 SSE 13 24 7 13 1014.5 - 0.0
21/06:00pm 23.8 25.1 21.6 87 1.5 SE 17 28 9 15 1014.5 - 0.0
21/05:30pm 24.1 25.4 21.7 86 1.6 SE 17 32 9 17 1014.5 - 0.0
21/05:16pm 24.3 26.5 21.8 86 1.7 SSE 13 26 7 14 - - 0.0
21/05:00pm 24.4 26.0 21.4 83 2.0 SSE 15 30 8 16 1014.3 - 0.0
21/04:30pm 24.7 26.7 21.6 83 2.1 SSE 13 24 7 13 1014.4 - 0.0
21/04:00pm 24.9 26.3 21.8 83 2.1 SSE 17 26 9 14 1014.5 1013.0 0.0
21/03:30pm 25.5 26.7 21.5 78 2.7 SSE 17 28 9 15 1014.7 - 0.0
21/03:00pm 24.9 25.8 21.5 81 2.3 SE 19 28 10 15 1015.0 - 0.0
21/02:50pm 25.1 26.5 21.8 82 2.2 SSE 17 32 9 17 1015.0 - 0.0
21/02:30pm 26.0 27.7 21.7 77 2.9 S 15 24 8 13 1015.3 - 0.0
21/02:17pm 26.0 27.8 21.8 77 2.8 SSE 15 24 8 13 - - 0.0
21/02:00pm 25.1 26.0 21.5 80 2.4 SSE 19 30 10 16 1015.7 - 0.0
21/01:30pm 25.5 26.7 21.5 78 2.7 SSE 17 26 9 14 1016.2 - 0.0
21/01:23pm 26.2 27.9 21.6 76 3.1 SSE 15 24 8 13 1016.3 - 0.0
21/01:00pm 26.5 27.8 21.6 74 3.3 SSE 17 28 9 15 1016.7 1015.2 0.0
21/12:56pm 26.2 27.9 21.6 76 3.1 S 15 28 8 15 1016.7 - 0.0
21/12:30pm 26.1 27.4 21.6 76 3.0 SSE 17 28 9 15 1016.9 - 0.0
21/12:00pm 25.7 26.9 21.5 77 2.8 SSE 17 28 9 15 1017.3 - 0.0
21/11:30am 25.4 26.2 21.7 80 2.5 SSE 20 32 11 17 1017.6 - 0.0
21/11:12am 25.7 26.5 21.8 79 2.6 SE 20 30 11 16 1017.7 - 0.0

Other Formats:

Comma delimited format used in spreadsheet applications
http://www.bom.gov.au/fwo/IDW60801/IDW60801.96995.axf

JavaScript Object Notation format (JSON) in row-major order
http://www.bom.gov.au/fwo/IDW60801/IDW60801.96995.json